sensor_id;sensor_type;location;lat;lon;timestamp;pressure;altitude;pressure_sealevel;temperature;humidity
52983;BME280;48698;45.736;13.926;2022-10-16T12:42:23;98294.75;;;18.94;100.00
52983;BME280;48698;45.736;13.926;2022-10-16T12:47:36;98346.44;;;18.99;100.00
52983;BME280;48698;45.736;13.926;2022-10-16T12:52:40;98132.06;;;17.79;100.00
52983;BME280;48698;45.736;13.926;2022-10-16T12:58:08;98347.63;;;18.95;100.00
52983;BME280;48698;45.736;13.926;2022-10-16T13:08:46;98244.25;;;18.37;100.00
52983;BME280;48698;45.736;13.926;2022-10-16T13:19:25;98349.81;;;19.37;100.00
52983;BME280;48698;45.736;13.926;2022-10-16T13:29:45;98262.59;;;18.92;100.00
52983;BME280;48698;45.736;13.926;2022-10-16T13:34:56;98343.91;;;19.56;100.00
52983;BME280;48698;45.736;13.926;2022-10-16T13:40:18;98358.00;;;19.94;100.00
52983;BME280;48698;45.736;13.926;2022-10-16T13:45:24;98188.53;;;18.87;100.00
52983;BME280;48698;45.736;13.926;2022-10-16T13:50:31;98357.75;;;19.97;100.00
52983;BME280;48698;45.736;13.926;2022-10-16T13:55:35;98354.31;;;19.84;100.00
52983;BME280;48698;45.736;13.926;2022-10-16T14:00:41;98348.25;;;19.70;100.00
52983;BME280;48698;45.736;13.926;2022-10-16T14:06:02;98367.00;;;19.82;100.00
52983;BME280;48698;45.736;13.926;2022-10-16T14:11:06;98252.84;;;19.37;100.00
52983;BME280;48698;45.736;13.926;2022-10-16T14:16:16;98204.84;;;18.96;100.00
52983;BME280;48698;45.736;13.926;2022-10-16T14:21:20;98354.44;;;19.59;100.00
52983;BME280;48698;45.736;13.926;2022-10-16T14:26:27;98373.25;;;19.72;100.00
52983;BME280;48698;45.736;13.926;2022-10-16T14:31:32;98368.53;;;19.63;100.00
52983;BME280;48698;45.736;13.926;2022-10-16T14:36:40;98314.25;;;19.32;100.00
52983;BME280;48698;45.736;13.926;2022-10-16T14:41:47;98142.03;;;18.14;100.00
52983;BME280;48698;45.736;13.926;2022-10-16T14:46:51;98404.34;;;19.41;100.00
52983;BME280;48698;45.736;13.926;2022-10-16T14:51:55;98367.38;;;19.06;100.00
52983;BME280;48698;45.736;13.926;2022-10-16T14:56:59;98296.53;;;18.58;100.00
52983;BME280;48698;45.736;13.926;2022-10-16T15:02:27;98387.66;;;18.99;100.00
52983;BME280;48698;45.736;13.926;2022-10-16T15:12:39;98270.44;;;17.97;100.00
52983;BME280;48698;45.736;13.926;2022-10-16T15:17:43;98394.41;;;18.56;100.00
52983;BME280;48698;45.736;13.926;2022-10-16T15:22:48;98351.63;;;18.15;100.00
52983;BME280;48698;45.736;13.926;2022-10-16T15:27:51;98385.59;;;18.03;100.00
52983;BME280;48698;45.736;13.926;2022-10-16T15:32:55;98280.06;;;16.97;100.00
52983;BME280;48698;45.736;13.926;2022-10-16T15:37:58;98370.53;;;17.49;100.00
52983;BME280;48698;45.736;13.926;2022-10-16T15:43:02;98319.28;;;17.00;100.00
52983;BME280;48698;45.736;13.926;2022-10-16T15:48:06;98314.50;;;16.22;100.00
52983;BME280;48698;45.736;13.926;2022-10-16T15:53:13;98294.19;;;15.61;100.00
52983;BME280;48698;45.736;13.926;2022-10-16T15:58:17;98212.63;;;14.65;100.00
52983;BME280;48698;45.736;13.926;2022-10-16T16:03:20;98333.94;;;14.93;100.00
52983;BME280;48698;45.736;13.926;2022-10-16T16:08:24;98316.50;;;14.24;100.00
52983;BME280;48698;45.736;13.926;2022-10-16T16:13:27;98360.75;;;14.45;100.00
52983;BME280;48698;45.736;13.926;2022-10-16T16:18:32;98348.97;;;13.83;100.00
52983;BME280;48698;45.736;13.926;2022-10-16T16:23:40;98340.91;;;13.51;100.00
52983;BME280;48698;45.736;13.926;2022-10-16T16:28:45;98432.91;;;13.78;100.00
52983;BME280;48698;45.736;13.926;2022-10-16T16:33:49;98333.50;;;13.04;100.00
52983;BME280;48698;45.736;13.926;2022-10-16T16:48:39;98502.25;;;13.43;100.00
52983;BME280;48698;45.736;13.926;2022-10-16T16:53:43;98458.25;;;12.41;100.00
52983;BME280;48698;45.736;13.926;2022-10-16T16:58:49;98489.88;;;12.68;100.00
52983;BME280;48698;45.736;13.926;2022-10-16T17:03:55;98406.66;;;12.24;100.00
52983;BME280;48698;45.736;13.926;2022-10-16T17:09:01;98520.06;;;12.68;100.00
52983;BME280;48698;45.736;13.926;2022-10-16T17:14:06;98500.00;;;12.60;100.00
52983;BME280;48698;45.736;13.926;2022-10-16T17:19:17;98551.75;;;12.35;100.00
52983;BME280;48698;45.736;13.926;2022-10-16T17:24:21;98463.63;;;12.01;100.00
52983;BME280;48698;45.736;13.926;2022-10-16T17:29:25;98541.59;;;12.43;100.00
52983;BME280;48698;45.736;13.926;2022-10-16T17:34:29;98385.94;;;11.51;100.00
52983;BME280;48698;45.736;13.926;2022-10-16T17:39:32;98450.88;;;12.28;100.00
52983;BME280;48698;45.736;13.926;2022-10-16T17:44:36;98561.72;;;12.30;100.00
52983;BME280;48698;45.736;13.926;2022-10-16T17:49:39;98552.53;;;11.97;100.00
52983;BME280;48698;45.736;13.926;2022-10-16T17:54:43;98451.00;;;11.64;100.00
52983;BME280;48698;45.736;13.926;2022-10-16T17:59:47;98474.72;;;11.49;100.00
52983;BME280;48698;45.736;13.926;2022-10-16T18:04:51;98525.03;;;11.97;100.00
52983;BME280;48698;45.736;13.926;2022-10-16T18:09:54;98582.03;;;12.13;100.00
52983;BME280;48698;45.736;13.926;2022-10-16T18:15:13;98401.47;;;11.20;100.00
52983;BME280;48698;45.736;13.926;2022-10-16T18:20:17;98554.41;;;11.73;100.00
52983;BME280;48698;45.736;13.926;2022-10-16T18:25:25;98530.34;;;11.76;100.00
52983;BME280;48698;45.736;13.926;2022-10-16T18:30:29;98540.59;;;11.42;100.00
52983;BME280;48698;45.736;13.926;2022-10-16T18:35:36;98388.47;;;10.70;100.00
52983;BME280;48698;45.736;13.926;2022-10-16T18:40:40;98501.44;;;11.46;100.00
52983;BME280;48698;45.736;13.926;2022-10-16T18:45:54;98460.88;;;11.19;100.00
52983;BME280;48698;45.736;13.926;2022-10-16T18:51:14;98610.84;;;11.81;100.00
52983;BME280;48698;45.736;13.926;2022-10-16T18:56:20;98610.28;;;11.95;100.00
52983;BME280;48698;45.736;13.926;2022-10-16T19:01:26;98495.84;;;11.10;100.00
52983;BME280;48698;45.736;13.926;2022-10-16T19:06:34;98620.50;;;11.84;100.00
52983;BME280;48698;45.736;13.926;2022-10-16T19:11:38;98486.84;;;10.67;100.00
52983;BME280;48698;45.736;13.926;2022-10-16T19:16:43;98497.94;;;10.78;100.00
52983;BME280;48698;45.736;13.926;2022-10-16T19:21:47;98451.75;;;10.59;100.00
52983;BME280;48698;45.736;13.926;2022-10-16T19:26:58;98634.56;;;11.43;100.00
52983;BME280;48698;45.736;13.926;2022-10-16T19:32:02;98608.34;;;11.55;100.00
52983;BME280;48698;45.736;13.926;2022-10-16T19:37:09;98450.22;;;10.54;100.00
52983;BME280;48698;45.736;13.926;2022-10-16T19:42:13;98411.47;;;10.25;100.00
52983;BME280;48698;45.736;13.926;2022-10-16T19:47:17;98447.00;;;10.21;100.00
52983;BME280;48698;45.736;13.926;2022-10-16T19:52:35;98594.88;;;10.92;100.00
52983;BME280;48698;45.736;13.926;2022-10-16T19:57:40;98417.13;;;9.66;100.00
52983;BME280;48698;45.736;13.926;2022-10-16T20:02:44;98521.75;;;10.09;100.00
52983;BME280;48698;45.736;13.926;2022-10-16T20:07:48;98611.28;;;10.79;100.00
52983;BME280;48698;45.736;13.926;2022-10-16T20:12:51;98507.50;;;9.86;100.00
52983;BME280;48698;45.736;13.926;2022-10-16T20:17:55;98525.84;;;9.93;100.00
52983;BME280;48698;45.736;13.926;2022-10-16T20:22:59;98699.00;;;10.78;100.00
52983;BME280;48698;45.736;13.926;2022-10-16T20:28:03;98439.53;;;9.82;100.00
52983;BME280;48698;45.736;13.926;2022-10-16T20:33:18;98685.38;;;11.35;100.00
52983;BME280;48698;45.736;13.926;2022-10-16T20:38:32;98499.66;;;9.83;100.00
52983;BME280;48698;45.736;13.926;2022-10-16T20:43:41;98608.19;;;10.42;100.00
52983;BME280;48698;45.736;13.926;2022-10-16T20:48:46;98680.41;;;11.03;100.00
52983;BME280;48698;45.736;13.926;2022-10-16T20:54:01;98612.59;;;10.43;100.00
52983;BME280;48698;45.736;13.926;2022-10-16T20:59:05;98726.50;;;11.02;100.00
52983;BME280;48698;45.736;13.926;2022-10-16T21:04:09;98632.16;;;10.65;100.00
52983;BME280;48698;45.736;13.926;2022-10-16T21:09:13;98653.88;;;10.27;100.00
52983;BME280;48698;45.736;13.926;2022-10-16T21:14:17;98565.41;;;10.00;100.00
52983;BME280;48698;45.736;13.926;2022-10-16T21:19:21;98598.03;;;9.77;100.00
52983;BME280;48698;45.736;13.926;2022-10-16T21:24:25;98565.13;;;9.55;100.00
52983;BME280;48698;45.736;13.926;2022-10-16T21:29:29;98628.78;;;9.83;100.00
52983;BME280;48698;45.736;13.926;2022-10-16T21:34:33;98435.63;;;8.91;100.00
52983;BME280;48698;45.736;13.926;2022-10-16T21:39:37;98722.03;;;10.53;100.00
52983;BME280;48698;45.736;13.926;2022-10-16T21:44:47;98676.53;;;10.11;100.00
52983;BME280;48698;45.736;13.926;2022-10-16T21:49:51;98669.25;;;9.90;100.00
52983;BME280;48698;45.736;13.926;2022-10-16T21:54:55;98623.81;;;9.72;100.00
52983;BME280;48698;45.736;13.926;2022-10-16T21:59:59;98470.41;;;8.78;100.00
52983;BME280;48698;45.736;13.926;2022-10-16T22:05:08;98578.41;;;9.27;100.00
52983;BME280;48698;45.736;13.926;2022-10-16T22:10:13;98472.06;;;8.82;100.00
52983;BME280;48698;45.736;13.926;2022-10-16T22:15:17;98629.94;;;9.74;100.00
52983;BME280;48698;45.736;13.926;2022-10-16T22:20:21;98576.75;;;9.51;100.00
52983;BME280;48698;45.736;13.926;2022-10-16T22:25:24;98734.81;;;10.42;100.00
52983;BME280;48698;45.736;13.926;2022-10-16T22:30:28;98522.75;;;9.27;100.00
52983;BME280;48698;45.736;13.926;2022-10-16T22:35:36;98728.03;;;10.33;100.00
52983;BME280;48698;45.736;13.926;2022-10-16T22:41:08;98739.25;;;10.13;100.00
52983;BME280;48698;45.736;13.926;2022-10-16T22:46:16;98735.69;;;10.42;100.00
52983;BME280;48698;45.736;13.926;2022-10-16T22:51:20;98687.00;;;10.15;100.00
52983;BME280;48698;45.736;13.926;2022-10-16T22:56:24;98690.06;;;10.02;100.00
52983;BME280;48698;45.736;13.926;2022-10-16T23:01:31;98731.84;;;9.95;100.00
52983;BME280;48698;45.736;13.926;2022-10-16T23:06:35;98682.63;;;9.86;100.00
52983;BME280;48698;45.736;13.926;2022-10-16T23:11:39;98622.38;;;9.34;100.00
52983;BME280;48698;45.736;13.926;2022-10-16T23:16:49;98550.53;;;8.87;100.00
52983;BME280;48698;45.736;13.926;2022-10-16T23:21:54;98731.75;;;9.98;100.00
52983;BME280;48698;45.736;13.926;2022-10-16T23:26:57;98755.16;;;10.15;100.00
52983;BME280;48698;45.736;13.926;2022-10-16T23:32:01;98678.28;;;9.27;100.00
52983;BME280;48698;45.736;13.926;2022-10-16T23:37:05;98625.47;;;9.19;100.00
52983;BME280;48698;45.736;13.926;2022-10-16T23:42:09;98663.91;;;9.63;100.00
52983;BME280;48698;45.736;13.926;2022-10-16T23:47:14;98692.13;;;9.37;100.00
52983;BME280;48698;45.736;13.926;2022-10-16T23:52:17;98749.84;;;9.58;100.00
52983;BME280;48698;45.736;13.926;2022-10-16T23:57:21;98666.13;;;8.89;100.00
